Centenario Blu — 3FXD7 — position and weather

sailwx.info

Track history (hours):
 
Tides and Currents Weather Stations Pressure Air Temp Water Temp Dewpoint Dewpoint Depression Visibility Wind Speed Wind Dir Waves Ship Positions

Centenario Blu

Last reported at 2017-Jan-25 00:32 UTC. Time now 2017-Feb-24 12:39 UTC.
Position S 28°49' E 032°03'.
Warning: this ship's position is 30 days out of date.

Length 190 m; draft 6.2 m.

Type: Cargo ship. MMSI: 356832000.

Date/timePositionNaut miles runAvg speedWind from/ knotsBaromVisibWave heightAir tempDewpointWater temp
2017-Jan-25 00:32S 28°49' E 032°03'0 0.0
2017-Jan-24 21:32S 28°49' E 032°03'0 0.0
2017-Jan-24 20:29S 28°49' E 032°03'7 0.5
2017-Jan-24 06:33S 28°54' E 032°08'4 4.0
2017-Jan-24 05:33S 28°57' E 032°06'0 0.1
2017-Jan-24 04:31S 28°58' E 032°06'0 0.0
2017-Jan-23 21:09S 28°58' E 032°06'0 0.1
2017-Jan-23 20:30S 28°58' E 032°06'0 0.0
2017-Jan-23 17:15S 28°58' E 032°06'0 0.1
2017-Jan-23 16:32S 28°58' E 032°06'0 0.0
2017-Jan-23 15:33S 28°58' E 032°06'0 0.0
2017-Jan-23 14:33S 28°58' E 032°06'0 0.1
2017-Jan-23 13:33S 28°58' E 032°06'0 0.1
2017-Jan-23 12:33S 28°58' E 032°06'0 0.0
2017-Jan-23 11:33S 28°58' E 032°06'0 0.0
2017-Jan-23 10:33S 28°58' E 032°06'0 0.0
2017-Jan-23 09:33S 28°58' E 032°06'0 0.0
2017-Jan-23 08:33S 28°58' E 032°06'0 0.0
2017-Jan-23 07:33S 28°58' E 032°06'0 0.1
2017-Jan-23 06:33S 28°58' E 032°06'0 0.0
2017-Jan-23 05:33S 28°58' E 032°06'0 0.0
2017-Jan-23 04:33S 28°58' E 032°06'0 0.0
2017-Jan-23 03:33S 28°58' E 032°06'0 0.0
2017-Jan-23 02:33S 28°58' E 032°06'0 0.0
2017-Jan-23 01:20S 28°58' E 032°06'0 0.0
2017-Jan-23 00:20S 28°58' E 032°06'0 0.1
2017-Jan-22 23:33S 28°58' E 032°06'0 0.0
2017-Jan-22 22:23S 28°58' E 032°06'0 0.0
2017-Jan-22 21:32S 28°58' E 032°06'0 0.0
2017-Jan-22 19:25S 28°58' E 032°06'0 0.0
2017-Jan-22 18:33S 28°58' E 032°06'0 0.0
2017-Jan-22 17:33S 28°58' E 032°06'0 0.0
2017-Jan-22 16:33S 28°58' E 032°06'0 0.0
2017-Jan-22 15:31S 28°58' E 032°06'0 0.0
2017-Jan-22 14:33S 28°58' E 032°06'0 0.0
2017-Jan-22 13:33S 28°58' E 032°06'0 0.1
2017-Jan-22 12:33S 28°58' E 032°06'0 0.1
2017-Jan-22 11:33S 28°57' E 032°06'0 0.0
2017-Jan-22 10:33S 28°57' E 032°06'0 0.0
2017-Jan-22 09:33S 28°57' E 032°06'0 0.0
2017-Jan-22 08:33S 28°57' E 032°06'0 0.0
2017-Jan-22 07:33S 28°57' E 032°06'0 0.0
2017-Jan-22 06:31S 28°57' E 032°06'0 0.1
2017-Jan-22 05:22S 28°57' E 032°06'0 0.1
2017-Jan-22 04:31S 28°57' E 032°06'0 0.0
2017-Jan-22 02:33S 28°57' E 032°06'0 0.0
2017-Jan-22 01:33S 28°57' E 032°06'0 0.0
2017-Jan-22 00:30S 28°57' E 032°06'0 0.0
2017-Jan-21 23:33S 28°57' E 032°06'0 0.0
2017-Jan-20 07:26S 28°57' E 032°06'0 0.1
2017-Jan-20 06:33S 28°57' E 032°06'0 0.0
2017-Jan-20 05:31S 28°57' E 032°06'0 0.0
2017-Jan-20 04:31S 28°57' E 032°06'0 0.0
2017-Jan-20 03:33S 28°57' E 032°06'0 0.1
2017-Jan-20 02:33S 28°57' E 032°06'0 0.1
2017-Jan-20 01:33S 28°57' E 032°06'0 0.1
2017-Jan-20 00:33S 28°57' E 032°06'0 0.0
2017-Jan-19 23:32S 28°57' E 032°06'0 0.1
2017-Jan-19 22:33S 28°57' E 032°06'0 0.2
2017-Jan-19 21:33S 28°57' E 032°06'0 0.2
2017-Jan-19 20:26S 28°58' E 032°06'0 0.0
2017-Jan-19 19:33S 28°58' E 032°06'0 0.0
2017-Jan-19 17:28S 28°57' E 032°06'0 0.0
2017-Jan-19 16:32S 28°57' E 032°06'0 0.0
2017-Jan-19 15:32S 28°58' E 032°06'0 0.0
2017-Jan-19 14:33S 28°58' E 032°06'3 2.5
2017-Jan-19 13:33S 28°60' E 032°07'9 9.2
2017-Jan-19 12:33S 28°56' E 032°16'1111.1
2017-Jan-19 11:33S 28°51' E 032°27'1414.5
2017-Jan-19 10:33S 28°47' E 032°43'1414.1
2017-Jan-19 09:33S 28°44' E 032°59'1413.9
2017-Jan-19 08:34S 28°41' E 033°15'1413.9
2017-Jan-19 07:33S 28°39' E 033°30'1613.7
2017-Jan-19 06:23S 28°36' E 033°48'1113.5
2017-Jan-19 05:33S 28°33' E 034°01'  
Track history (hours):
 
Tides and Currents Weather Stations Pressure Air Temp Water Temp Dewpoint Dewpoint Depression Visibility Wind Speed Wind Dir Waves Ship Positions

Centenario Blu

Last reported at 2017-Jan-25 00:32 UTC. Time now 2017-Feb-24 12:39 UTC.
Position S 28°49' E 032°03'.
Warning: this ship's position is 30 days out of date.

Length 190 m; draft 6.2 m.

Type: Cargo ship. MMSI: 356832000.

Date/timePositionNaut miles runAvg speedWind from/ knotsBaromVisibWave heightAir tempDewpointWater temp
2017-Jan-25 00:32S 28°49' E 032°03'0 0.0
2017-Jan-24 21:32S 28°49' E 032°03'0 0.0
2017-Jan-24 20:29S 28°49' E 032°03'7 0.5
2017-Jan-24 06:33S 28°54' E 032°08'4 4.0
2017-Jan-24 05:33S 28°57' E 032°06'0 0.1
2017-Jan-24 04:31S 28°58' E 032°06'0 0.0
2017-Jan-23 21:09S 28°58' E 032°06'0 0.1
2017-Jan-23 20:30S 28°58' E 032°06'0 0.0
2017-Jan-23 17:15S 28°58' E 032°06'0 0.1
2017-Jan-23 16:32S 28°58' E 032°06'0 0.0
2017-Jan-23 15:33S 28°58' E 032°06'0 0.0
2017-Jan-23 14:33S 28°58' E 032°06'0 0.1
2017-Jan-23 13:33S 28°58' E 032°06'0 0.1
2017-Jan-23 12:33S 28°58' E 032°06'0 0.0
2017-Jan-23 11:33S 28°58' E 032°06'0 0.0
2017-Jan-23 10:33S 28°58' E 032°06'0 0.0
2017-Jan-23 09:33S 28°58' E 032°06'0 0.0
2017-Jan-23 08:33S 28°58' E 032°06'0 0.0
2017-Jan-23 07:33S 28°58' E 032°06'0 0.1
2017-Jan-23 06:33S 28°58' E 032°06'0 0.0
2017-Jan-23 05:33S 28°58' E 032°06'0 0.0
2017-Jan-23 04:33S 28°58' E 032°06'0 0.0
2017-Jan-23 03:33S 28°58' E 032°06'0 0.0
2017-Jan-23 02:33S 28°58' E 032°06'0 0.0
2017-Jan-23 01:20S 28°58' E 032°06'0 0.0
2017-Jan-23 00:20S 28°58' E 032°06'0 0.1
2017-Jan-22 23:33S 28°58' E 032°06'0 0.0
2017-Jan-22 22:23S 28°58' E 032°06'0 0.0
2017-Jan-22 21:32S 28°58' E 032°06'0 0.0
2017-Jan-22 19:25S 28°58' E 032°06'0 0.0
2017-Jan-22 18:33S 28°58' E 032°06'0 0.0
2017-Jan-22 17:33S 28°58' E 032°06'0 0.0
2017-Jan-22 16:33S 28°58' E 032°06'0 0.0
2017-Jan-22 15:31S 28°58' E 032°06'0 0.0
2017-Jan-22 14:33S 28°58' E 032°06'0 0.0
2017-Jan-22 13:33S 28°58' E 032°06'0 0.1
2017-Jan-22 12:33S 28°58' E 032°06'0 0.1
2017-Jan-22 11:33S 28°57' E 032°06'0 0.0
2017-Jan-22 10:33S 28°57' E 032°06'0 0.0
2017-Jan-22 09:33S 28°57' E 032°06'0 0.0
2017-Jan-22 08:33S 28°57' E 032°06'0 0.0
2017-Jan-22 07:33S 28°57' E 032°06'0 0.0
2017-Jan-22 06:31S 28°57' E 032°06'0 0.1
2017-Jan-22 05:22S 28°57' E 032°06'0 0.1
2017-Jan-22 04:31S 28°57' E 032°06'0 0.0
2017-Jan-22 02:33S 28°57' E 032°06'0 0.0
2017-Jan-22 01:33S 28°57' E 032°06'0 0.0
2017-Jan-22 00:30S 28°57' E 032°06'0 0.0
2017-Jan-21 23:33S 28°57' E 032°06'0 0.0
2017-Jan-20 07:26S 28°57' E 032°06'0 0.1
2017-Jan-20 06:33S 28°57' E 032°06'0 0.0
2017-Jan-20 05:31S 28°57' E 032°06'0 0.0
2017-Jan-20 04:31S 28°57' E 032°06'0 0.0
2017-Jan-20 03:33S 28°57' E 032°06'0 0.1
2017-Jan-20 02:33S 28°57' E 032°06'0 0.1
2017-Jan-20 01:33S 28°57' E 032°06'0 0.1
2017-Jan-20 00:33S 28°57' E 032°06'0 0.0
2017-Jan-19 23:32S 28°57' E 032°06'0 0.1
2017-Jan-19 22:33S 28°57' E 032°06'0 0.2
2017-Jan-19 21:33S 28°57' E 032°06'0 0.2
2017-Jan-19 20:26S 28°58' E 032°06'0 0.0
2017-Jan-19 19:33S 28°58' E 032°06'0 0.0
2017-Jan-19 17:28S 28°57' E 032°06'0 0.0
2017-Jan-19 16:32S 28°57' E 032°06'0 0.0
2017-Jan-19 15:32S 28°58' E 032°06'0 0.0
2017-Jan-19 14:33S 28°58' E 032°06'3 2.5
2017-Jan-19 13:33S 28°60' E 032°07'9 9.2
2017-Jan-19 12:33S 28°56' E 032°16'1111.1
2017-Jan-19 11:33S 28°51' E 032°27'1414.5
2017-Jan-19 10:33S 28°47' E 032°43'1414.1
2017-Jan-19 09:33S 28°44' E 032°59'1413.9
2017-Jan-19 08:34S 28°41' E 033°15'1413.9
2017-Jan-19 07:33S 28°39' E 033°30'1613.7
2017-Jan-19 06:23S 28°36' E 033°48'1113.5
2017-Jan-19 05:33S 28°33' E 034°01'  

Dump ship's entire track history